alt.binaries.pictures.erotics.breast Group List
Num Subject Author Time
66 Amateurs All Day Long HD Videos... [9 of 43] 0496-IMG_0067-lg.jpg 35-files 7MB "Amateurs.nzb" Henry Addams 2016/09/15 14:35
65 Amateurs All Day Long HD Videos... [8 of 43] 0000-fb0952HD.mov 1-file 24MB "0000-fb0952HD.mov.nzb" Henry Addams 2016/09/15 14:34
64 Amateurs All Day Long HD Videos... [7 of 43] 0000-HD-Sample0889.mov 1-file 10MB "0000-HD-Sample0889.mov.nzb" Henry Addams 2016/09/15 14:32
63 Amateurs All Day Long HD Videos... [6 of 43] 0000-HD-MV-0894-.mov 1-file 5MB "0000-HD-MV-0894-.mov.nzb" Henry Addams 2016/09/15 14:32
62 Amateurs All Day Long HD Videos... [5 of 43] 0000-HD-0917.mov 1-file 30MB "0000-HD-0917.mov.nzb" Henry Addams 2016/09/15 14:32
61 Amateurs All Day Long HD Videos... [4 of 43] 0000-HD-0901jn.mov 1-file 26MB "0000-HD-0901jn.mov.nzb" Henry Addams 2016/09/15 14:32
60 Amateurs All Day Long HD Videos... [3 of 43] 0000-HD-0741jnSamplerUNa.mov 1-file 30MB "0000-HD-0741jnSamplerUNa.mov.nzb" Henry Addams 2016/09/15 14:32
59 Amateurs All Day Long HD Videos... [2 of 43] 0000-Breasts0323JNSa.mov 1-file 9MB "0000-Breasts0323JNSa.mov.nzb" Henry Addams 2016/09/15 14:32
58 Amateurs All Day Long HD Videos... [1 of 43] 0000-Breasts Sampler1.41.mov 1-file 20MB "0000-Breasts_Sampler1.41.mov.nzb" Henry Addams 2016/09/15 14:32
57 only young beautiful ladies___Bridget 0.jpg 138175 224-files 44MB "only.nzb" wpickel 2016/09/05 07:33
56 this cute girl___Nata 001.jpg 100073 100-files 13MB "this.nzb" irosen 2016/09/05 06:04
55 her virginity is still whole?... And for a long time?:) 1.jpg 219678 261-files 59MB "her.nzb" acyalum87 2016/09/04 06:38
54 total ass destruction 0.jpg 89304 231-files 38MB "total.nzb" twood 2016/09/03 21:38
53 sweet young pussy___Charlotte 0.jpg 199238 290-files 55MB "sweet.nzb" k2mister 2016/09/02 10:25
52 Here's free young girls 001.jpg 75970 100-files 14MB "Here.nzb" t.e.dalton 2016/08/31 04:09
51 More exclusive models 1.jpg 140526 4-files 869KB "More.nzb" ghunt8153 2016/08/23 01:49
50 Doll face amateur has sex and a smoke 3.jpg 120726 1-file 167KB "Doll.nzb" roquedan 2016/08/23 00:48
49 Doll face amateur has sex and a smoke 0.jpg 89172 4-files 678KB "Doll.nzb" roquedan 2016/08/23 00:48
48 Most crazy sets - Jolly 2.jpg 168526 192-files 40MB "Most.nzb" bert.dewey 2016/08/20 18:50
47 Little tiny sweeties 001.jpg 113887 48-files 8MB "Little.nzb" t.e.dalton 2016/08/19 01:20
46 Why are they such Young and attractive? 1.jpg 191292 100-files 24MB "Why.nzb" gellebn 2016/08/18 02:57
45 Girls playing 001.jpg 113181 21-files 3MB "Girls.nzb" Puptrck150 2016/08/15 22:03
44 Beautiful Young girls always in the price 24.jpg 124239 224-files 45MB "Beautiful.nzb" bert.dewey 2016/08/15 08:34
43 Fresh collections 1.jpg 142367 229-files 43MB "Fresh.nzb" Ken28_s 2016/08/14 15:25
42 !!! Total Ass Destruction !!! 001.jpg 69493 55-files 6MB "Total.nzb" savage_Ira 2016/08/14 00:35
41 Anita's first sets 1.jpg 102114 502-files 94MB "Anita.nzb" dalad 2016/08/12 21:06
40 There is also a great cumshot of the gooey stuff dripping from her snatch. 001.jpg 81187 27-files 3MB "There.nzb" Puptrck150 2016/08/13 07:01
39 Sweet Young erotic Models 1.jpg 156749 278-files 49MB "Sweet.nzb" Ken28_s 2016/08/12 05:41
38 Tiny Sweet nice girls! 1.jpg 83282 296-files 54MB "Tiny.nzb" lefortpaul 2016/08/10 05:34
37 The only Real Teen website 1.jpg 146711 193-files 42MB "The.nzb" bassemasaad 2016/08/08 09:51
36 Sweet Young erotic Models 3.jpg 205663 476-files 105MB "Sweet.nzb" bassemasaad 2016/08/07 00:12
35 Anita dreams... - '5' of '88' 88-files 19MB "Anita.nzb" t.e.dalton 2016/08/06 10:56
34 Latest horny photo set found.. 1.jpg 167980 372-files 88MB "Latest.nzb" acyalum87 2016/07/16 18:37
33 You will have many Favorites! HD Videos... [1 of 35] 0000-Breasts 0385JNSa.mov 35-files 79MB "0000-Breasts_0385JNSa.mov. .. Henry Addams 2016/07/13 16:37
32 re: plz post more pics! 1.jpg 129924 255-files 46MB "plz.nzb" irosen 2016/07/12 18:58
31 i look a great videos___Veronica 20.jpg 112573 1-file 156KB "look.nzb" ghunt8153 2016/07/09 06:10
30 Little Cathy so temptin... 1.jpg 149816 599-files 121MB "Little.nzb" kornis01 2016/07/07 09:22
29 My little sister nude___Trixie 001.jpg 103161 139-files 24MB "little.nzb" savage_Ira 2016/07/06 08:16
28 Total Ass Destruction 0.jpg 101708 82-files 12MB "Total.nzb" Puptrck150 2016/07/05 16:37
27 Her virginity is still whole?... And for a long time? 3.jpg 180352 232-files 48MB "Her.nzb" twood 2016/07/04 22:36
26 Tiny Sweet hot amateur girl - '35' of '80' 1-file 271KB "Tiny.nzb" roquedan 2016/07/05 03:15
25 Tiny Sweet hot amateur girl - '21' of '80' 34-files 12MB "Tiny.nzb" roquedan 2016/07/05 03:14
24 Pure SLUT do it like that - '1' of '50' 50-files 8MB "Pure.nzb" t.e.dalton 2016/07/04 21:57
23 tit sex with hot amateur girl 1.jpg 116440 310-files 60MB "tit.nzb" t.e.dalton 2016/07/02 04:12
22 Never seen her before? 2.jpg 115725 309-files 64MB "Never.nzb" gscxray 2016/06/29 02:27
21 YoungEuroTeens - '1' of '47' 47-files 8MB "YoungEuroTee.nzb" irosen 2016/06/27 20:18
20 YoungTeens 2.jpg 167585 187-files 41MB "YoungTeens.nzb" bert.dewey 2016/06/25 04:33
19 This sweety comes from heaven 002.jpg 120116 48-files 8MB "This.nzb" small.anya 2016/06/22 11:08
18 Tiny Sweet Hard core series - '1' of '98' 98-files 25MB "Tiny.nzb" bassemasaad 2016/08/11 06:11
17 I love to cheat on my husband 001.jpg 69493 55-files 6MB "love.nzb" savage.Ira 2016/06/17 22:12
16 It's a LEAP year... Enjoy more AMATEURS here... [11 of 67] 0496-IMG_0049-lg.jpg 57-files 11MB "LEAP.nzb" Henry Addams 2016/02/24 09:26
15 It's a LEAP year... Enjoy more AMATEURS here... [10 of 67] 0000-fb0952HD.mov 1-file 24MB "0000-fb0952HD.mov.nzb" Henry Addams 2016/02/24 09:25
14 It's a LEAP year... Enjoy more AMATEURS here... [9 of 67] 0000-Natural Boobs 0372JNSa.mov 1-file 9MB "0000-Natural_Boobs .. Henry Addams 2016/02/24 09:25
13 It's a LEAP year... Enjoy more AMATEURS here... [8 of 67] 0000-HD-Sample0889.mov 1-file 10MB "0000-HD-Sample0889.mov.nzb .. Henry Addams 2016/02/24 09:25
12 It's a LEAP year... Enjoy more AMATEURS here... [7 of 67] 0000-HD-MV-0894-.mov 1-file 5MB "0000-HD-MV-0894-.mov.nzb" Henry Addams 2016/02/24 09:25
11 It's a LEAP year... Enjoy more AMATEURS here... [6 of 67] 0000-HD-0917.mov 1-file 30MB "0000-HD-0917.mov.nzb" Henry Addams 2016/02/24 09:25
10 It's a LEAP year... Enjoy more AMATEURS here... [5 of 67] 0000-HD-0901jn.mov 1-file 26MB "0000-HD-0901jn.mov.nzb" Henry Addams 2016/02/24 09:25
9 It's a LEAP year... Enjoy more AMATEURS here... [4 of 67] 0000-HD-0741jnSamplerUNa.mov 1-file 30MB "0000-HD-0741jnSample .. Henry Addams 2016/02/24 09:25
8 It's a LEAP year... Enjoy more AMATEURS here... [3 of 67] 0000-Breasts0323JNSa.mov 1-file 9MB "0000-Breasts0323JNSa.mov. .. Henry Addams 2016/02/24 09:25
7 It's a LEAP year... Enjoy more AMATEURS here... [2 of 67] 0000-Breasts Sampler1.41.mov 1-file 20MB "0000-Breasts_Sampler .. Henry Addams 2016/02/24 09:25
6 It's a LEAP year... Enjoy more AMATEURS here... [1 of 67] 0000-Breasts 0385JNSa.mov 1-file 10MB "0000-Breasts_0385JNSa.m .. Henry Addams 2016/02/24 09:25
5 Feel the youngest..nata 001.jpg 272960 124 files 48 MB "Feel.nzb" <author> 2014/09/22 06:06
4 She's just started in 18 001.jpg 104762 161 files 25 MB "She.nzb" <author> 2014/09/01 07:36
3 Such a young pretties - new colelction 001.jpg 307467 130 files 56 MB "Such.nzb" <author> 2014/08/06 08:47
2 Little angels..Masha 001.jpg 170170 70 files 15 MB "Little.nzb" <author> 2013/09/07 21:46
1 My sister___Ariel 002.jpg 196597 34 files 8 MB "sister___Ari.nzb" <author> 2012/02/16 15:47
First Prev. Next Last Page
of totaling 1 page(s)
  Refresh


  Language: